createdAt,value
2022-07-31T00:00:22.711Z,18.20
2022-07-31T00:02:50.914Z,18.16
2022-07-31T00:05:18.648Z,18.12
2022-07-31T00:07:46.274Z,18.13
2022-07-31T00:10:15.328Z,18.12
2022-07-31T00:12:43.141Z,18.10
2022-07-31T00:15:12.554Z,18.05
2022-07-31T00:17:40.333Z,17.98
2022-07-31T00:20:09.489Z,17.96
2022-07-31T00:22:37.782Z,17.93
2022-07-31T00:25:06.091Z,17.90
2022-07-31T00:27:35.185Z,17.84
2022-07-31T00:30:02.824Z,17.82
2022-07-31T00:32:30.512Z,17.77
2022-07-31T00:34:58.169Z,17.74
2022-07-31T00:37:25.892Z,17.71
2022-07-31T00:39:54.363Z,17.70
2022-07-31T00:42:23.977Z,17.65
2022-07-31T00:44:53.531Z,17.60
2022-07-31T00:47:23.891Z,17.57
2022-07-31T00:49:53.178Z,17.55
2022-07-31T00:52:21.494Z,17.54
2022-07-31T00:54:49.112Z,17.50
2022-07-31T00:57:16.857Z,17.49
2022-07-31T00:59:44.705Z,17.44
2022-07-31T01:02:13.767Z,17.41
2022-07-31T01:04:41.931Z,17.38
2022-07-31T01:07:12.382Z,17.39
2022-07-31T01:09:40.187Z,17.36
2022-07-31T01:12:13.084Z,17.35
2022-07-31T01:14:43.181Z,17.32
2022-07-31T01:17:11.003Z,17.31
2022-07-31T01:19:43.292Z,17.31
2022-07-31T01:22:34.692Z,17.26
2022-07-31T01:25:08.941Z,17.22
2022-07-31T01:27:50.104Z,17.20
2022-07-31T01:30:19.994Z,17.18
2022-07-31T01:32:49.707Z,17.13
2022-07-31T01:35:19.222Z,17.12
2022-07-31T01:37:49.751Z,17.12
2022-07-31T01:40:21.655Z,17.07
2022-07-31T01:42:52.764Z,17.04
2022-07-31T01:45:22.268Z,17.03
2022-07-31T01:47:51.230Z,17.00
2022-07-31T01:50:43.813Z,16.96
2022-07-31T01:53:08.396Z,16.94
2022-07-31T01:56:02.129Z,16.89
2022-07-31T01:58:25.553Z,16.88
2022-07-31T02:00:56.808Z,16.86
2022-07-31T02:03:44.389Z,16.83
2022-07-31T02:06:14.817Z,16.82
2022-07-31T02:08:43.367Z,16.82
2022-07-31T02:11:11.026Z,16.84
2022-07-31T02:13:38.893Z,16.87
2022-07-31T02:16:08.002Z,16.88
2022-07-31T02:18:37.129Z,16.86
2022-07-31T02:21:04.917Z,16.87
2022-07-31T02:23:32.530Z,16.86
2022-07-31T02:26:00.571Z,16.87
2022-07-31T02:28:29.374Z,16.87
2022-07-31T02:30:57.584Z,16.88
2022-07-31T02:33:27.501Z,16.87
2022-07-31T02:35:57.360Z,16.91
2022-07-31T02:38:27.273Z,16.91
2022-07-31T02:41:03.727Z,16.87
2022-07-31T02:43:33.406Z,16.88
2022-07-31T02:46:01.587Z,16.88
2022-07-31T02:48:30.913Z,16.89
2022-07-31T02:50:58.768Z,16.94
2022-07-31T02:53:27.094Z,16.98
2022-07-31T02:55:54.847Z,17.01
2022-07-31T02:58:22.491Z,17.04
2022-07-31T03:00:59.490Z,17.02
2022-07-31T03:03:27.251Z,17.04
2022-07-31T03:05:56.304Z,17.06
2022-07-31T03:08:24.006Z,17.06
2022-07-31T03:10:51.905Z,17.03
2022-07-31T03:13:21.279Z,17.04
2022-07-31T03:15:50.790Z,17.04
2022-07-31T03:18:19.178Z,17.04
2022-07-31T03:20:47.099Z,17.06
2022-07-31T03:23:16.152Z,17.03
2022-07-31T03:25:43.895Z,17.02
2022-07-31T03:28:11.538Z,17.01
2022-07-31T03:30:39.394Z,17.00
2022-07-31T03:33:07.004Z,17.01
2022-07-31T03:35:34.743Z,17.01
2022-07-31T03:38:39.273Z,17.01
2022-07-31T03:40:58.717Z,17.01
2022-07-31T03:43:26.720Z,17.01
2022-07-31T03:45:58.829Z,17.03
2022-07-31T03:48:26.734Z,17.03
2022-07-31T03:50:56.304Z,17.03
2022-07-31T03:53:24.566Z,16.98
2022-07-31T03:55:53.030Z,16.92
2022-07-31T03:58:23.203Z,16.90
2022-07-31T04:00:52.871Z,16.86
2022-07-31T04:03:22.135Z,16.90
2022-07-31T04:05:49.792Z,16.93
2022-07-31T04:08:17.449Z,16.96
2022-07-31T04:10:45.139Z,16.99
2022-07-31T04:13:12.756Z,16.98
2022-07-31T04:15:41.781Z,16.96
2022-07-31T04:18:09.436Z,16.96
2022-07-31T04:20:37.065Z,16.99
2022-07-31T04:23:04.921Z,16.98
2022-07-31T04:25:34.925Z,17.00
2022-07-31T04:28:02.684Z,17.01
2022-07-31T04:30:30.306Z,17.01
2022-07-31T04:32:59.837Z,17.00
2022-07-31T04:35:27.834Z,17.02
2022-07-31T04:37:55.586Z,17.02
2022-07-31T04:40:23.244Z,17.05
2022-07-31T04:42:50.945Z,17.07
2022-07-31T04:45:18.713Z,17.09
2022-07-31T04:47:46.332Z,17.12
2022-07-31T04:50:15.303Z,17.12
2022-07-31T04:52:42.949Z,17.09
2022-07-31T04:55:11.084Z,17.06
2022-07-31T04:57:38.866Z,17.04
2022-07-31T05:00:08.389Z,17.02
2022-07-31T05:02:36.131Z,17.02
2022-07-31T05:05:03.961Z,17.04
2022-07-31T05:07:34.467Z,17.04
2022-07-31T05:10:02.104Z,17.07
2022-07-31T05:12:29.714Z,17.12
2022-07-31T05:14:57.385Z,17.14
2022-07-31T05:17:25.048Z,17.18
2022-07-31T05:19:52.678Z,17.21
2022-07-31T05:22:20.666Z,17.26
2022-07-31T05:24:49.629Z,17.32
2022-07-31T05:27:17.291Z,17.36
2022-07-31T05:29:44.931Z,17.43
2022-07-31T05:32:12.822Z,17.50
2022-07-31T05:34:40.767Z,17.56
2022-07-31T05:37:08.425Z,17.59
2022-07-31T05:39:36.056Z,17.67
2022-07-31T05:42:05.692Z,17.69
2022-07-31T05:44:33.550Z,17.75
2022-07-31T05:47:01.162Z,17.79
2022-07-31T05:49:29.071Z,17.86
2022-07-31T05:51:56.769Z,17.92
2022-07-31T05:54:24.401Z,18.02
2022-07-31T05:56:52.006Z,18.10
2022-07-31T05:59:21.009Z,18.15
2022-07-31T06:01:48.674Z,18.24
2022-07-31T06:04:16.334Z,18.30
2022-07-31T06:06:43.943Z,18.35
2022-07-31T06:09:11.702Z,18.38
2022-07-31T06:11:39.320Z,18.42
2022-07-31T06:14:06.981Z,18.48
2022-07-31T06:16:35.997Z,18.54
2022-07-31T06:19:03.864Z,18.60
2022-07-31T06:21:31.511Z,18.61
2022-07-31T06:23:59.139Z,18.68
2022-07-31T06:26:26.831Z,18.75
2022-07-31T06:28:55.548Z,18.78
2022-07-31T06:31:23.902Z,18.80
2022-07-31T06:33:53.003Z,18.87
2022-07-31T06:36:20.778Z,18.94
2022-07-31T06:38:48.439Z,18.92
2022-07-31T06:41:36.573Z,19.00
2022-07-31T06:44:04.915Z,19.12
2022-07-31T06:46:32.572Z,19.19
2022-07-31T06:49:05.538Z,19.23
2022-07-31T06:51:36.250Z,19.33
2022-07-31T06:54:06.287Z,19.38
2022-07-31T06:56:35.201Z,19.39
2022-07-31T06:59:03.071Z,19.48
2022-07-31T07:01:30.853Z,19.49
2022-07-31T07:04:02.840Z,19.57
2022-07-31T07:06:30.511Z,19.65
2022-07-31T07:08:58.127Z,19.73
2022-07-31T07:11:25.782Z,19.78
2022-07-31T07:13:53.422Z,19.84
2022-07-31T07:16:21.099Z,19.85
2022-07-31T07:18:48.783Z,19.89
2022-07-31T07:21:17.976Z,19.92
2022-07-31T07:23:45.716Z,19.96
2022-07-31T07:26:13.407Z,19.96
2022-07-31T07:28:41.047Z,20.03
2022-07-31T07:31:08.720Z,20.07
2022-07-31T07:33:40.730Z,20.15
2022-07-31T07:36:22.909Z,20.10
2022-07-31T07:38:55.299Z,20.03
2022-07-31T07:41:23.617Z,20.01
2022-07-31T07:43:51.777Z,20.03
2022-07-31T07:46:20.717Z,20.19
2022-07-31T07:48:49.135Z,20.31
2022-07-31T07:51:16.964Z,20.38
2022-07-31T07:53:44.633Z,20.47
2022-07-31T07:56:13.693Z,20.58
2022-07-31T07:58:41.754Z,20.68
2022-07-31T08:01:09.642Z,20.72
2022-07-31T08:03:48.578Z,20.92
2022-07-31T08:06:19.799Z,21.14
2022-07-31T08:08:47.772Z,21.56
2022-07-31T08:11:17.941Z,21.90
2022-07-31T08:13:50.598Z,22.23
2022-07-31T08:16:19.335Z,22.52
2022-07-31T08:18:46.977Z,22.72
2022-07-31T08:21:18.135Z,22.84
2022-07-31T08:23:45.727Z,23.01
2022-07-31T08:26:14.010Z,23.19
2022-07-31T08:28:50.464Z,23.43
2022-07-31T08:31:19.171Z,23.72
2022-07-31T08:33:47.451Z,24.05
2022-07-31T08:36:15.131Z,24.18
2022-07-31T08:38:42.741Z,24.41
2022-07-31T08:41:10.376Z,24.59
2022-07-31T08:44:03.180Z,24.83
2022-07-31T08:46:27.405Z,24.37
2022-07-31T08:48:57.467Z,24.49
2022-07-31T08:51:25.389Z,24.88
2022-07-31T08:53:54.012Z,24.96
2022-07-31T08:56:22.095Z,25.06
2022-07-31T08:58:49.748Z,24.94
2022-07-31T09:01:17.590Z,24.19
2022-07-31T09:03:46.676Z,24.41
2022-07-31T09:06:14.351Z,24.77
2022-07-31T09:08:42.202Z,25.27
2022-07-31T09:11:12.204Z,25.21
2022-07-31T09:13:40.574Z,24.95
2022-07-31T09:16:09.021Z,24.71
2022-07-31T09:18:36.786Z,24.40
2022-07-31T09:21:08.428Z,24.67
2022-07-31T09:23:45.352Z,24.76
2022-07-31T09:26:13.386Z,25.44
2022-07-31T09:28:43.471Z,25.77
2022-07-31T09:31:12.509Z,25.49
2022-07-31T09:33:45.314Z,25.86
2022-07-31T09:36:15.957Z,26.11
2022-07-31T09:38:44.717Z,25.94
2022-07-31T09:41:20.382Z,26.09
2022-07-31T09:44:02.797Z,26.16
2022-07-31T09:46:42.020Z,25.91
2022-07-31T09:49:09.745Z,25.61
2022-07-31T09:51:43.101Z,26.25
2022-07-31T09:54:21.579Z,26.88
2022-07-31T09:56:50.202Z,26.68
2022-07-31T09:59:18.034Z,27.21
2022-07-31T10:01:48.823Z,27.51
2022-07-31T10:04:17.997Z,27.71
2022-07-31T10:06:48.796Z,27.56
2022-07-31T10:09:16.676Z,27.30
2022-07-31T10:11:45.374Z,27.48
2022-07-31T10:14:20.426Z,27.66
2022-07-31T10:16:48.229Z,27.76
2022-07-31T10:19:16.530Z,27.34
2022-07-31T10:21:51.983Z,27.75
2022-07-31T10:24:25.974Z,27.25
2022-07-31T10:27:01.979Z,27.05
2022-07-31T10:29:39.139Z,27.50
2022-07-31T10:32:07.433Z,27.68
2022-07-31T10:34:35.188Z,26.94
2022-07-31T10:37:11.446Z,27.20
2022-07-31T10:39:45.237Z,27.88
2022-07-31T10:42:17.298Z,28.38
2022-07-31T10:44:47.676Z,28.50
2022-07-31T10:47:15.882Z,28.26
2022-07-31T10:49:44.746Z,28.45
2022-07-31T10:52:13.781Z,28.82
2022-07-31T10:54:42.960Z,28.91
2022-07-31T10:57:12.304Z,28.95
2022-07-31T10:59:44.344Z,28.80
2022-07-31T11:02:12.554Z,28.87
2022-07-31T11:04:40.358Z,29.01
2022-07-31T11:07:19.953Z,29.18
2022-07-31T11:09:50.539Z,29.26
2022-07-31T11:12:19.400Z,28.78
2022-07-31T11:14:47.081Z,29.03
2022-07-31T11:17:14.886Z,29.18
2022-07-31T11:19:45.048Z,29.52
2022-07-31T11:22:31.621Z,29.21
2022-07-31T11:25:01.828Z,28.93
2022-07-31T11:27:32.568Z,29.09
2022-07-31T11:30:09.370Z,29.01
2022-07-31T11:32:40.911Z,29.01
2022-07-31T11:35:09.390Z,28.96
2022-07-31T11:37:56.599Z,29.14
2022-07-31T11:40:27.712Z,28.95
2022-07-31T11:43:24.715Z,29.16
2022-07-31T11:45:48.833Z,29.06
2022-07-31T11:48:19.262Z,28.05
2022-07-31T11:50:47.899Z,27.88
2022-07-31T11:53:16.007Z,27.70
2022-07-31T11:55:50.175Z,27.64
2022-07-31T11:58:18.883Z,27.66
2022-07-31T12:00:50.856Z,28.04
2022-07-31T12:03:20.164Z,28.27
2022-07-31T12:05:49.133Z,28.41
2022-07-31T12:08:17.285Z,28.55
2022-07-31T12:10:45.241Z,28.57
2022-07-31T12:13:16.143Z,28.27
2022-07-31T12:15:55.648Z,28.52
2022-07-31T12:18:23.906Z,28.36
2022-07-31T12:20:55.393Z,28.01
2022-07-31T12:23:41.162Z,27.91
2022-07-31T12:26:09.893Z,27.57
2022-07-31T12:28:38.888Z,27.71
2022-07-31T12:31:06.482Z,28.06
2022-07-31T12:33:41.327Z,28.49
2022-07-31T12:36:13.570Z,28.17
2022-07-31T12:38:47.769Z,27.81
2022-07-31T12:41:16.735Z,28.03
2022-07-31T12:43:51.298Z,28.25
2022-07-31T12:46:21.392Z,28.55
2022-07-31T12:48:49.109Z,28.72
2022-07-31T12:51:20.240Z,28.77
2022-07-31T12:54:08.191Z,28.79
2022-07-31T12:56:35.943Z,28.85
2022-07-31T12:59:05.599Z,29.32
2022-07-31T13:01:33.796Z,29.31
2022-07-31T13:04:03.404Z,29.05
2022-07-31T13:06:31.501Z,28.93
2022-07-31T13:08:59.413Z,28.25
2022-07-31T13:11:28.987Z,28.71
2022-07-31T13:13:58.283Z,28.58
2022-07-31T13:16:27.286Z,28.57
2022-07-31T13:18:54.902Z,28.53
2022-07-31T13:21:22.615Z,28.26
2022-07-31T13:23:55.994Z,28.41
2022-07-31T13:26:23.897Z,28.90
2022-07-31T13:28:51.479Z,29.27
2022-07-31T13:31:19.133Z,29.62
2022-07-31T13:33:48.112Z,29.76
2022-07-31T13:36:15.785Z,29.40
2022-07-31T13:38:43.407Z,29.44
2022-07-31T13:41:25.023Z,29.38
2022-07-31T13:43:59.865Z,29.53
2022-07-31T13:46:29.468Z,29.49
2022-07-31T13:48:59.608Z,28.73
2022-07-31T13:51:29.987Z,29.00
2022-07-31T13:53:57.698Z,28.88
2022-07-31T13:56:39.122Z,28.99
2022-07-31T13:59:11.677Z,29.12
2022-07-31T14:02:04.176Z,29.17
2022-07-31T14:04:31.232Z,29.23
2022-07-31T14:07:00.808Z,29.06
2022-07-31T14:09:28.593Z,28.82
2022-07-31T14:11:56.386Z,28.58
2022-07-31T14:14:27.051Z,28.24
2022-07-31T14:16:55.172Z,28.15
2022-07-31T14:19:22.835Z,28.26
2022-07-31T14:21:56.814Z,28.68
2022-07-31T14:24:27.672Z,28.72
2022-07-31T14:26:55.996Z,29.10
2022-07-31T14:29:23.830Z,29.24
2022-07-31T14:31:51.475Z,29.07
2022-07-31T14:34:19.123Z,29.12
2022-07-31T14:36:46.732Z,29.36
2022-07-31T14:39:15.871Z,29.58
2022-07-31T14:41:43.805Z,29.49
2022-07-31T14:44:11.468Z,29.51
2022-07-31T14:46:39.073Z,29.59
2022-07-31T14:49:08.761Z,28.70
2022-07-31T14:51:36.457Z,28.67
2022-07-31T14:54:05.491Z,28.78
2022-07-31T14:56:59.709Z,28.58
2022-07-31T14:59:22.826Z,28.64
2022-07-31T15:01:50.475Z,28.76
2022-07-31T15:04:18.149Z,28.83
2022-07-31T15:06:59.394Z,28.23
2022-07-31T15:09:33.524Z,28.28
2022-07-31T15:12:02.548Z,28.49
2022-07-31T15:14:30.406Z,28.04
2022-07-31T15:16:58.140Z,28.33
2022-07-31T15:19:25.758Z,28.50
2022-07-31T15:22:10.729Z,28.32
2022-07-31T15:24:48.396Z,28.30
2022-07-31T15:27:20.796Z,27.99
2022-07-31T15:30:04.666Z,27.83
2022-07-31T15:32:35.684Z,27.83
2022-07-31T15:35:03.777Z,27.85
2022-07-31T15:37:34.895Z,27.98
2022-07-31T15:40:04.675Z,27.86
2022-07-31T15:42:34.110Z,27.71
2022-07-31T15:45:01.861Z,27.65
2022-07-31T15:47:29.568Z,27.67
2022-07-31T15:49:57.157Z,27.77
2022-07-31T15:52:24.837Z,27.84
2022-07-31T15:54:52.840Z,27.91
2022-07-31T15:57:21.153Z,27.94
2022-07-31T15:59:50.725Z,27.85
2022-07-31T16:02:18.364Z,27.56
2022-07-31T16:04:53.143Z,27.75
2022-07-31T16:08:28.601Z,27.79
2022-07-31T16:10:14.818Z,27.84
2022-07-31T16:12:43.953Z,27.90
2022-07-31T16:15:13.566Z,27.97
2022-07-31T16:17:41.250Z,28.05
2022-07-31T16:20:10.544Z,28.12
2022-07-31T16:22:39.083Z,28.17
2022-07-31T16:25:07.940Z,28.14
2022-07-31T16:27:35.580Z,28.12
2022-07-31T16:30:03.641Z,28.14
2022-07-31T16:32:32.953Z,28.07
2022-07-31T16:35:01.627Z,27.99
2022-07-31T16:37:50.560Z,27.88
2022-07-31T16:40:28.483Z,27.86
2022-07-31T16:43:00.839Z,27.87
2022-07-31T16:45:29.095Z,27.90
2022-07-31T16:47:58.172Z,27.88
2022-07-31T16:50:26.092Z,27.90
2022-07-31T16:52:55.108Z,27.93
2022-07-31T16:55:46.117Z,27.81
2022-07-31T16:58:11.681Z,27.75
2022-07-31T17:00:40.186Z,27.69
2022-07-31T17:03:58.984Z,27.51
2022-07-31T17:05:57.436Z,27.44
2022-07-31T17:08:25.254Z,27.37
2022-07-31T17:10:54.744Z,27.29
2022-07-31T17:13:23.039Z,27.29
2022-07-31T17:15:50.723Z,27.24
2022-07-31T17:18:24.880Z,27.19
2022-07-31T17:20:53.007Z,27.23
2022-07-31T17:23:42.767Z,27.17
2022-07-31T17:26:20.714Z,27.18
2022-07-31T17:28:49.648Z,27.11
2022-07-31T17:31:17.278Z,27.13
2022-07-31T17:33:54.573Z,27.06
2022-07-31T17:36:28.106Z,27.02
2022-07-31T17:38:55.832Z,27.02
2022-07-31T17:41:24.999Z,26.95
2022-07-31T17:43:54.048Z,26.94
2022-07-31T17:46:34.412Z,26.92
2022-07-31T17:49:08.176Z,26.87
2022-07-31T17:51:36.070Z,26.82
2022-07-31T17:54:09.473Z,26.83
2022-07-31T17:56:37.500Z,26.83
2022-07-31T17:59:05.794Z,26.82
2022-07-31T18:01:34.652Z,26.80
2022-07-31T18:04:02.598Z,26.71
2022-07-31T18:06:31.973Z,26.63
2022-07-31T18:08:59.954Z,26.48
2022-07-31T18:11:27.871Z,26.44
2022-07-31T18:13:55.703Z,26.40
2022-07-31T18:16:28.818Z,26.32
2022-07-31T18:18:56.416Z,26.30
2022-07-31T18:21:24.053Z,26.30
2022-07-31T18:23:53.035Z,26.28
2022-07-31T18:26:20.706Z,26.22
2022-07-31T18:28:48.354Z,26.19
2022-07-31T18:31:32.121Z,26.17
2022-07-31T18:34:03.063Z,26.09
2022-07-31T18:36:30.774Z,26.03
2022-07-31T18:38:59.920Z,25.96
2022-07-31T18:41:28.203Z,25.88
2022-07-31T18:43:55.923Z,25.85
2022-07-31T18:46:24.776Z,25.80
2022-07-31T18:48:55.332Z,25.74
2022-07-31T18:51:23.885Z,25.70
2022-07-31T18:53:51.827Z,25.65
2022-07-31T18:56:23.953Z,25.53
2022-07-31T18:58:52.068Z,25.45
2022-07-31T19:01:19.804Z,25.37
2022-07-31T19:03:47.723Z,25.29
2022-07-31T19:06:15.606Z,25.20
2022-07-31T19:08:43.271Z,25.15
2022-07-31T19:11:11.691Z,25.09
2022-07-31T19:13:40.851Z,24.99
2022-07-31T19:16:08.511Z,24.95
2022-07-31T19:18:37.652Z,24.94
2022-07-31T19:21:18.007Z,24.84
2022-07-31T19:23:53.709Z,24.76
2022-07-31T19:26:21.410Z,24.68
2022-07-31T19:28:51.193Z,24.54
2022-07-31T19:31:18.980Z,24.49
2022-07-31T19:33:46.598Z,24.36
2022-07-31T19:36:15.385Z,24.27
2022-07-31T19:38:44.572Z,24.17
2022-07-31T19:41:13.187Z,24.12
2022-07-31T19:43:40.929Z,24.09
2022-07-31T19:46:12.783Z,24.04
2022-07-31T19:48:41.642Z,24.03
2022-07-31T19:51:09.907Z,23.94
2022-07-31T19:53:38.245Z,23.94
2022-07-31T19:56:06.562Z,23.92
2022-07-31T19:58:34.892Z,23.89
2022-07-31T20:01:03.061Z,23.85
2022-07-31T20:03:32.377Z,23.87
2022-07-31T20:06:00.313Z,23.84
2022-07-31T20:08:28.074Z,23.88
2022-07-31T20:11:03.253Z,23.87
2022-07-31T20:13:31.838Z,23.86
2022-07-31T20:15:59.793Z,23.86
2022-07-31T20:18:28.769Z,23.85
2022-07-31T20:20:59.571Z,23.79
2022-07-31T20:23:27.536Z,23.78
2022-07-31T20:25:55.748Z,23.77
2022-07-31T20:28:23.773Z,23.76
2022-07-31T20:30:51.485Z,23.76
2022-07-31T20:33:19.283Z,23.72
2022-07-31T20:35:49.275Z,23.72
2022-07-31T20:38:19.344Z,23.71
2022-07-31T20:40:54.470Z,23.68
2022-07-31T20:43:23.787Z,23.64
2022-07-31T20:45:51.797Z,23.66
2022-07-31T20:48:21.091Z,23.63
2022-07-31T20:50:48.900Z,23.57
2022-07-31T20:53:16.657Z,23.58
2022-07-31T20:55:47.437Z,23.52
2022-07-31T20:58:15.355Z,23.48
2022-07-31T21:00:43.133Z,23.42
2022-07-31T21:03:10.838Z,23.38
2022-07-31T21:05:38.456Z,23.37
2022-07-31T21:08:06.530Z,23.37
2022-07-31T21:10:34.305Z,23.38
2022-07-31T21:13:03.480Z,23.38
2022-07-31T21:15:44.256Z,23.36
2022-07-31T21:18:13.338Z,23.36
2022-07-31T21:20:50.252Z,23.35
2022-07-31T21:23:21.073Z,23.33
2022-07-31T21:29:38.384Z,23.26
2022-07-31T21:32:08.653Z,23.18
2022-07-31T21:34:37.024Z,23.19
2022-07-31T21:37:04.751Z,23.15
2022-07-31T21:39:34.721Z,23.09
2022-07-31T21:42:03.457Z,23.11
2022-07-31T21:44:31.926Z,23.10
2022-07-31T21:47:02.212Z,23.10
2022-07-31T21:49:33.541Z,23.12
2022-07-31T21:52:02.032Z,23.10
2022-07-31T21:54:30.320Z,23.10
2022-07-31T21:56:58.016Z,23.08
2022-07-31T21:59:25.731Z,23.07
2022-07-31T22:01:57.968Z,23.09
2022-07-31T22:04:34.830Z,23.04
2022-07-31T22:07:20.260Z,23.03
2022-07-31T22:09:47.996Z,23.01
2022-07-31T22:12:15.663Z,23.01
2022-07-31T22:14:43.484Z,23.00
2022-07-31T22:17:13.182Z,23.02
2022-07-31T22:19:47.169Z,22.96
2022-07-31T22:22:16.116Z,22.92
2022-07-31T22:24:44.245Z,22.90
2022-07-31T22:27:30.159Z,22.87
2022-07-31T22:29:58.218Z,22.86
2022-07-31T22:32:26.341Z,22.85
2022-07-31T22:34:55.603Z,22.80
2022-07-31T22:37:23.644Z,22.76
2022-07-31T22:39:51.796Z,22.74
2022-07-31T22:42:19.926Z,22.72
2022-07-31T22:44:47.958Z,22.69
2022-07-31T22:47:17.276Z,22.68
2022-07-31T22:49:45.086Z,22.66
2022-07-31T22:52:14.325Z,22.64
2022-07-31T22:54:42.597Z,22.61
2022-07-31T22:57:10.320Z,22.59
2022-07-31T22:59:38.212Z,22.58
2022-07-31T23:02:09.075Z,22.52
2022-07-31T23:04:37.047Z,22.47
2022-07-31T23:07:04.834Z,22.39
2022-07-31T23:09:33.991Z,22.41
2022-07-31T23:12:02.128Z,22.38
2022-07-31T23:14:30.928Z,22.32
2022-07-31T23:16:58.942Z,22.32
2022-07-31T23:19:26.791Z,22.29
2022-07-31T23:21:54.522Z,22.28
2022-07-31T23:24:22.290Z,22.23
2022-07-31T23:26:51.297Z,22.19
2022-07-31T23:29:18.954Z,22.14
2022-07-31T23:31:46.607Z,22.09
2022-07-31T23:34:15.935Z,22.07
2022-07-31T23:36:44.031Z,22.04
2022-07-31T23:39:13.109Z,22.01
2022-07-31T23:41:58.851Z,21.91
2022-07-31T23:44:27.987Z,21.82
2022-07-31T23:46:56.058Z,21.76
2022-07-31T23:49:24.396Z,21.74
2022-07-31T23:51:52.158Z,21.69
2022-07-31T23:54:19.802Z,21.64
2022-07-31T23:56:47.411Z,21.55
2022-07-31T23:59:15.125Z,21.53
